Terminal Aerodrome Forecast
Issued by NWS Wilmington, OH

Current Version | Previous Version | Graphics & Text | Print | Product List | Glossary On
Versions: 1 2 3 4 5 6 7 8 9 10 11 12 13 14 15 16 17 18 19 20 21 22
000
FTUS41 KILN 272000 AAA
TAFILN
TAF AMD
KILN 272001Z 2720/2818 22012G22KT P6SM BKN040
     FM280000 23010KT P6SM VCTS BKN050CB
     FM280200 25006KT P6SM SCT050
     FM280900 VRB03KT 5SM BR FEW040
     FM281400 07006KT P6SM FEW035=

USA.gov is the U.S. government's official web portal to all federal, state and local government web resources and services.